首页
METAR-TAF:

METAR-TAF

机场 :

Santa Maria di Leuca

Castrignano del Capo, 意大利

纬度: 39-49N, 经度: 018-21E, 海拔: 104米

当前天气观测

该预报发布于1小时和59分钟前的17:55 UTC
风速10节,风向北转东北
温度 12°C
湿度 82%
气压 1020 hPa
能见度10公里或以上
1500米以下无云,无积雨云

METAR: LIBY 181755Z 02010KT CAVOK 12/09 Q1020 RMK SKC QUK / QUL / VIS MAR 12 KM VIS MIN 9999

时间: 20:54 (19:54 UTC)


TAF: 丢失

超过4000个机场的气象观测和天气预报(METAR&TAF报告)。

可查询的气象台以黄色和红色小点在地图上表示。

将鼠标移到小点上方,可查看气象台名称。

然后点击查看天气观测和预报。

如需切换地图:点击带黑十字的绿色按钮放大地图;点击带横线的绿色按钮缩小地图;或者点击绿色箭头查看邻近地区的地图。


METAR-TAF: